Terminal Aerodrome Forecast
Issued by NWS Upton, NY

Home | Current Version | Previous Version | Text Only | Print | Product List | Glossary On
Versions: 1 2 3 4 5 6 7 8 9 10 11 12 13 14 15 16 17 18 19 20 21 22 23 24 25 26 27 28 29 30 31 32 33 34 35
000
FTUS41 KOKX 231932 AAA
TAFBDR
TAF AMD
KBDR 231932Z 2320/2418 21007KT P6SM BKN200
     FM240300 VRB03KT P6SM BKN120
     FM240500 06007KT P6SM BKN100
     FM240800 04010KT 5SM -RA OVC020
     FM241400 02009KT P6SM -SHRA BKN040 OVC100
     FM241600 36010KT P6SM OVC050=

USA.gov is the U.S. government's official web portal to all federal, state and local government web resources and services.